createdAt,value
2019-03-16T00:00:54.898Z,33.70
2019-03-16T00:01:57.344Z,33.09
2019-03-16T00:02:54.886Z,31.39
2019-03-16T00:03:54.866Z,43.59
2019-03-16T00:04:55.056Z,31.39
2019-03-16T00:05:54.853Z,34.00
2019-03-16T00:06:54.833Z,27.00
2019-03-16T00:07:54.827Z,29.29
2019-03-16T00:08:54.813Z,27.70
2019-03-16T00:09:54.804Z,24.10
2019-03-16T00:10:54.899Z,32.90
2019-03-16T00:11:54.926Z,28.00
2019-03-16T00:12:54.777Z,28.00
2019-03-16T00:13:54.766Z,30.10
2019-03-16T00:14:54.753Z,31.00
2019-03-16T00:15:54.742Z,26.70
2019-03-16T00:16:54.829Z,24.89
2019-03-16T00:17:54.715Z,14.50
2019-03-16T00:18:54.709Z,15.10
2019-03-16T00:19:54.695Z,15.39
2019-03-16T00:20:54.687Z,13.89
2019-03-16T00:21:54.678Z,21.29
2019-03-16T00:22:54.867Z,26.20
2019-03-16T00:23:54.656Z,22.60
2019-03-16T00:24:54.647Z,20.00
2019-03-16T00:25:54.634Z,21.89
2019-03-16T00:26:54.621Z,28.79
2019-03-16T00:27:54.661Z,32.50
2019-03-16T00:28:54.604Z,27.20
2019-03-16T00:29:54.593Z,32.90
2019-03-16T00:30:54.584Z,25.29
2019-03-16T00:31:54.573Z,25.89
2019-03-16T00:32:54.560Z,30.29
2019-03-16T00:33:54.648Z,32.40
2019-03-16T00:34:54.542Z,27.20
2019-03-16T00:35:54.525Z,32.79
2019-03-16T00:36:54.515Z,20.89
2019-03-16T00:37:54.506Z,35.79
2019-03-16T00:38:54.496Z,23.00
2019-03-16T00:39:54.637Z,26.50
2019-03-16T00:40:54.477Z,23.10
2019-03-16T00:41:54.463Z,33.90
2019-03-16T00:42:54.456Z,37.40
2019-03-16T00:43:54.440Z,30.79
2019-03-16T00:44:54.437Z,33.00
2019-03-16T00:45:54.523Z,29.20
2019-03-16T00:46:54.409Z,30.60
2019-03-16T00:47:54.401Z,29.39
2019-03-16T00:48:54.385Z,26.60
2019-03-16T00:49:54.374Z,16.00
2019-03-16T00:50:54.370Z,25.20
2019-03-16T00:51:54.456Z,28.50
2019-03-16T00:52:54.347Z,26.50
2019-03-16T00:53:54.333Z,22.60
2019-03-16T00:54:54.318Z,25.10
2019-03-16T00:55:54.310Z,31.00
2019-03-16T00:56:54.304Z,28.60
2019-03-16T00:57:54.442Z,26.00
2019-03-16T00:58:54.277Z,28.29
2019-03-16T00:59:54.269Z,31.70
2019-03-16T01:00:54.259Z,24.89
2019-03-16T01:01:54.247Z,27.10
2019-03-16T01:02:54.240Z,23.39
2019-03-16T01:03:54.278Z,22.60
2019-03-16T01:04:54.220Z,18.29
2019-03-16T01:05:54.201Z,25.20
2019-03-16T01:06:54.197Z,26.89
2019-03-16T01:07:54.184Z,31.29
2019-03-16T01:08:54.171Z,34.40
2019-03-16T01:09:54.264Z,40.20
2019-03-16T01:10:54.151Z,44.79
2019-03-16T01:11:54.144Z,29.39
2019-03-16T01:12:54.129Z,29.70
2019-03-16T01:13:54.120Z,32.09
2019-03-16T01:14:54.108Z,29.10
2019-03-16T01:15:54.499Z,28.89
2019-03-16T01:16:54.081Z,19.00
2019-03-16T01:17:54.077Z,32.79
2019-03-16T01:18:54.063Z,20.89
2019-03-16T01:19:54.053Z,28.50
2019-03-16T01:20:54.040Z,27.50
2019-03-16T01:21:54.079Z,22.29
2019-03-16T01:22:54.021Z,25.10
2019-03-16T01:23:54.010Z,29.50
2019-03-16T01:24:54.000Z,25.60
2019-03-16T01:25:53.995Z,30.50
2019-03-16T01:26:53.980Z,30.10
2019-03-16T01:27:54.026Z,22.20
2019-03-16T01:28:53.962Z,28.89
2019-03-16T01:29:53.946Z,23.79
2019-03-16T01:30:53.933Z,24.60
2019-03-16T01:31:53.925Z,26.00
2019-03-16T01:32:53.965Z,29.29
2019-03-16T01:33:53.904Z,20.70
2019-03-16T01:34:53.891Z,21.00
2019-03-16T01:35:53.883Z,35.29
2019-03-16T01:36:53.872Z,23.50
2019-03-16T01:37:53.869Z,25.00
2019-03-16T01:38:53.951Z,37.70
2019-03-16T01:39:53.839Z,28.10
2019-03-16T01:40:53.830Z,27.50
2019-03-16T01:41:53.820Z,37.40
2019-03-16T01:42:53.807Z,35.59
2019-03-16T01:43:53.952Z,32.40
2019-03-16T01:44:53.787Z,30.39
2019-03-16T01:45:53.784Z,28.00
2019-03-16T01:46:53.767Z,28.79
2019-03-16T01:47:53.753Z,19.00
2019-03-16T01:48:53.743Z,19.60
2019-03-16T01:49:53.782Z,20.60
2019-03-16T01:50:53.720Z,18.50
2019-03-16T01:51:53.713Z,34.90
2019-03-16T01:52:53.700Z,25.20
2019-03-16T01:53:53.691Z,34.09
2019-03-16T01:54:53.678Z,31.20
2019-03-16T01:55:53.774Z,45.70
2019-03-16T01:56:53.662Z,36.40
2019-03-16T01:57:53.644Z,46.79
2019-03-16T01:58:53.635Z,42.40
2019-03-16T01:59:53.627Z,39.79
2019-03-16T02:00:53.611Z,36.59
2019-03-16T02:01:53.761Z,45.59
2019-03-16T02:02:55.638Z,43.00
2019-03-16T02:03:53.583Z,47.29
2019-03-16T02:04:53.576Z,41.29
2019-03-16T02:05:53.562Z,45.50
2019-03-16T02:06:53.550Z,41.50
2019-03-16T02:07:53.587Z,42.09
2019-03-16T02:08:53.531Z,41.20
2019-03-16T02:09:53.519Z,38.59
2019-03-16T02:10:53.506Z,46.90
2019-03-16T02:11:53.499Z,43.09
2019-03-16T02:12:53.490Z,42.40
2019-03-16T02:13:53.581Z,38.09
2019-03-16T02:14:53.470Z,33.40
2019-03-16T02:15:53.458Z,36.50
2019-03-16T02:16:53.446Z,39.29
2019-03-16T02:17:53.436Z,45.00
2019-03-16T02:18:53.433Z,45.40
2019-03-16T02:19:53.616Z,40.79
2019-03-16T02:20:53.410Z,47.09
2019-03-16T02:21:53.393Z,52.59
2019-03-16T02:22:53.382Z,54.79
2019-03-16T02:23:53.376Z,53.40
2019-03-16T02:24:53.372Z,44.40
2019-03-16T02:25:53.398Z,50.50
2019-03-16T02:26:53.342Z,47.90
2019-03-16T02:27:53.324Z,60.29
2019-03-16T02:28:53.319Z,62.70
2019-03-16T02:29:53.302Z,45.50
2019-03-16T02:30:53.295Z,47.90
2019-03-16T02:31:53.336Z,39.00
2019-03-16T02:32:53.279Z,52.40
2019-03-16T02:33:53.264Z,48.40
2019-03-16T02:34:53.261Z,45.09
2019-03-16T02:35:53.258Z,47.00
2019-03-16T02:36:53.242Z,45.20
2019-03-16T02:37:53.373Z,48.00
2019-03-16T02:38:53.211Z,52.50
2019-03-16T02:39:53.201Z,58.79
2019-03-16T02:40:53.190Z,58.20
2019-03-16T02:41:53.183Z,48.20
2019-03-16T02:42:53.175Z,57.40
2019-03-16T02:43:53.270Z,61.29
2019-03-16T02:44:53.156Z,55.79
2019-03-16T02:45:53.145Z,60.90
2019-03-16T02:46:53.137Z,56.70
2019-03-16T02:47:53.126Z,52.40
2019-03-16T02:48:53.155Z,64.80
2019-03-16T02:49:53.100Z,69.80
2019-03-16T02:50:53.085Z,61.79
2019-03-16T02:51:53.079Z,71.80
2019-03-16T02:52:53.069Z,67.19
2019-03-16T02:53:53.200Z,69.30
2019-03-16T02:54:53.041Z,69.00
2019-03-16T02:55:53.030Z,68.50
2019-03-16T02:56:53.023Z,65.00
2019-03-16T02:57:53.022Z,62.29
2019-03-16T02:58:53.099Z,71.00
2019-03-16T02:59:52.996Z,62.70
2019-03-16T03:00:52.982Z,79.19
2019-03-16T03:01:52.977Z,64.00
2019-03-16T03:02:52.960Z,66.09
2019-03-16T03:03:52.950Z,59.29
2019-03-16T03:04:52.989Z,73.50
2019-03-16T03:05:52.930Z,63.00
2019-03-16T03:06:52.915Z,65.40
2019-03-16T03:07:52.915Z,68.40
2019-03-16T03:08:52.899Z,66.50
2019-03-16T03:09:52.885Z,67.30
2019-03-16T03:10:52.926Z,84.90
2019-03-16T03:11:52.870Z,98.40
2019-03-16T03:12:52.869Z,68.90
2019-03-16T03:13:52.845Z,75.69
2019-03-16T03:14:52.832Z,90.00
2019-03-16T03:15:52.982Z,81.50
2019-03-16T03:16:52.810Z,81.80
2019-03-16T03:17:52.802Z,83.00
2019-03-16T03:18:52.795Z,83.19
2019-03-16T03:19:52.781Z,93.00
2019-03-16T03:20:52.767Z,83.50
2019-03-16T03:21:52.809Z,55.09
2019-03-16T03:22:52.751Z,63.70
2019-03-16T03:23:52.740Z,66.69
2019-03-16T03:24:52.729Z,53.20
2019-03-16T03:25:52.770Z,63.29
2019-03-16T03:26:52.713Z,60.40
2019-03-16T03:27:52.801Z,62.20
2019-03-16T03:28:52.797Z,52.70
2019-03-16T03:29:57.158Z,91.59
2019-03-16T03:30:52.705Z,87.00
2019-03-16T03:31:52.662Z,103.00
2019-03-16T03:32:52.650Z,92.30
2019-03-16T03:34:02.381Z,89.30
2019-03-16T03:34:53.723Z,89.40
2019-03-16T03:35:52.622Z,71.40
2019-03-16T03:36:52.610Z,84.80
2019-03-16T03:37:52.600Z,81.00
2019-03-16T03:38:52.591Z,76.00
2019-03-16T03:39:52.629Z,85.30
2019-03-16T03:40:52.565Z,67.59
2019-03-16T03:41:52.559Z,78.69
2019-03-16T03:42:52.550Z,63.90
2019-03-16T03:43:52.538Z,80.00
2019-03-16T03:44:52.527Z,51.20
2019-03-16T03:45:52.617Z,32.20
2019-03-16T03:46:52.505Z,50.40
2019-03-16T03:47:52.493Z,47.00
2019-03-16T03:48:52.486Z,51.20
2019-03-16T03:49:52.489Z,62.09
2019-03-16T03:50:52.459Z,56.09
2019-03-16T03:51:52.661Z,45.50
2019-03-16T03:52:52.450Z,63.20
2019-03-16T03:53:52.463Z,63.40
2019-03-16T03:54:52.423Z,74.30
2019-03-16T03:55:52.408Z,58.00
2019-03-16T03:56:52.534Z,71.40
2019-03-16T03:57:52.396Z,56.50
2019-03-16T03:58:52.390Z,64.09
2019-03-16T03:59:52.388Z,59.20
2019-03-16T04:00:52.365Z,57.50
2019-03-16T04:01:52.454Z,73.59
2019-03-16T04:02:52.345Z,55.50
2019-03-16T04:03:52.332Z,59.50
2019-03-16T04:04:52.320Z,49.40
2019-03-16T04:05:52.305Z,60.09
2019-03-16T04:06:52.362Z,56.40
2019-03-16T04:07:52.642Z,45.59
2019-03-16T04:08:52.290Z,56.70
2019-03-16T04:09:52.277Z,64.19
2019-03-16T04:10:52.259Z,49.29
2019-03-16T04:11:52.246Z,42.20
2019-03-16T04:12:52.232Z,35.00
2019-03-16T04:13:52.270Z,33.20
2019-03-16T04:14:52.210Z,22.10
2019-03-16T04:15:52.202Z,18.70
2019-03-16T04:16:52.194Z,27.00
2019-03-16T04:17:52.183Z,20.00
2019-03-16T04:18:52.290Z,24.29
2019-03-16T04:19:52.210Z,23.20
2019-03-16T04:20:52.155Z,18.89
2019-03-16T04:21:52.147Z,24.89
2019-03-16T04:22:52.142Z,20.10
2019-03-16T04:23:52.121Z,21.20
2019-03-16T04:24:52.116Z,22.20
2019-03-16T04:25:52.250Z,17.10
2019-03-16T04:26:52.089Z,19.89
2019-03-16T04:27:52.072Z,19.70
2019-03-16T04:28:52.065Z,16.20
2019-03-16T04:29:52.057Z,18.79
2019-03-16T04:30:52.048Z,19.39
2019-03-16T04:31:52.142Z,19.60
2019-03-16T04:32:52.027Z,16.60
2019-03-16T04:33:52.015Z,18.20
2019-03-16T04:34:51.999Z,18.00
2019-03-16T04:35:51.997Z,16.60
2019-03-16T04:36:51.983Z,18.50
2019-03-16T04:37:52.028Z,20.00
2019-03-16T04:38:51.967Z,16.00
2019-03-16T04:39:51.956Z,17.50
2019-03-16T04:40:51.940Z,15.89
2019-03-16T04:41:51.926Z,14.89
2019-03-16T04:42:51.922Z,18.60
2019-03-16T04:43:52.158Z,23.00
2019-03-16T04:44:51.898Z,16.60
2019-03-16T04:45:51.887Z,21.00
2019-03-16T04:46:51.884Z,13.39
2019-03-16T04:47:51.870Z,15.00
2019-03-16T04:48:51.858Z,16.20
2019-03-16T04:49:51.946Z,26.50
2019-03-16T04:50:51.835Z,15.10
2019-03-16T04:51:51.826Z,11.19
2019-03-16T04:52:51.819Z,14.50
2019-03-16T04:53:51.805Z,16.29
2019-03-16T04:54:51.795Z,14.69
2019-03-16T04:55:51.839Z,22.39
2019-03-16T04:56:51.774Z,17.50
2019-03-16T04:57:51.760Z,28.89
2019-03-16T04:58:51.939Z,15.30
2019-03-16T04:59:51.739Z,17.10
2019-03-16T05:00:51.749Z,14.30
2019-03-16T05:01:51.921Z,9.00
2019-03-16T05:02:51.722Z,12.89
2019-03-16T05:03:51.704Z,14.30
2019-03-16T05:04:51.689Z,12.00
2019-03-16T05:05:51.680Z,13.19
2019-03-16T05:06:51.670Z,11.60
2019-03-16T05:07:51.709Z,17.60
2019-03-16T05:08:51.652Z,15.00
2019-03-16T05:09:51.642Z,15.39
2019-03-16T05:10:51.629Z,14.10
2019-03-16T05:11:51.619Z,13.69
2019-03-16T05:12:51.614Z,12.00
2019-03-16T05:13:51.654Z,9.60
2019-03-16T05:14:51.592Z,18.20
2019-03-16T05:15:51.577Z,13.19
2019-03-16T05:16:51.572Z,13.50
2019-03-16T05:17:51.557Z,15.19
2019-03-16T05:18:51.559Z,10.00
2019-03-16T05:19:51.695Z,14.10
2019-03-16T05:20:51.524Z,14.30
2019-03-16T05:21:51.518Z,16.60
2019-03-16T05:22:51.507Z,10.50
2019-03-16T05:23:51.496Z,15.10
2019-03-16T05:24:51.483Z,13.80
2019-03-16T05:25:51.582Z,13.89
2019-03-16T05:26:51.466Z,12.50
2019-03-16T05:27:51.453Z,12.39
2019-03-16T05:28:51.447Z,15.50
2019-03-16T05:29:51.432Z,13.00
2019-03-16T05:30:51.424Z,14.39
2019-03-16T05:31:51.468Z,19.20
2019-03-16T05:32:51.417Z,13.60
2019-03-16T05:33:51.395Z,14.60
2019-03-16T05:34:56.508Z,17.50
2019-03-16T05:35:51.370Z,13.30
2019-03-16T05:36:51.357Z,15.69
2019-03-16T05:37:51.509Z,19.70
2019-03-16T05:38:51.342Z,25.79
2019-03-16T05:39:51.334Z,15.60
2019-03-16T05:40:51.317Z,18.29
2019-03-16T05:41:51.315Z,18.20
2019-03-16T05:42:51.302Z,14.10
2019-03-16T05:43:51.394Z,19.29
2019-03-16T05:44:51.279Z,18.50
2019-03-16T05:45:51.270Z,15.19
2019-03-16T05:46:51.261Z,17.39
2019-03-16T05:47:51.255Z,17.60
2019-03-16T05:48:51.240Z,18.70
2019-03-16T05:49:51.327Z,18.00
2019-03-16T05:50:51.215Z,18.00
2019-03-16T05:51:51.210Z,13.80
2019-03-16T05:52:51.200Z,15.30
2019-03-16T05:53:51.188Z,26.60
2019-03-16T05:54:51.225Z,19.79
2019-03-16T05:55:51.167Z,16.50
2019-03-16T05:56:51.158Z,15.80
2019-03-16T05:57:51.145Z,18.60
2019-03-16T05:58:51.136Z,18.00
2019-03-16T05:59:51.377Z,17.00
2019-03-16T06:00:51.120Z,16.89
2019-03-16T06:01:51.111Z,18.00
2019-03-16T06:02:51.090Z,32.20
2019-03-16T06:03:51.084Z,21.20
2019-03-16T06:04:51.073Z,19.70
2019-03-16T06:05:51.165Z,24.20
2019-03-16T06:06:51.072Z,19.70
2019-03-16T06:07:51.040Z,19.70
2019-03-16T06:08:51.032Z,21.50
2019-03-16T06:09:51.022Z,18.00
2019-03-16T06:10:51.008Z,22.60
2019-03-16T06:11:51.093Z,25.89
2019-03-16T06:12:50.995Z,23.79
2019-03-16T06:13:50.977Z,25.50
2019-03-16T06:14:50.967Z,25.00
2019-03-16T06:15:50.956Z,24.79
2019-03-16T06:16:50.945Z,23.29
2019-03-16T06:17:51.387Z,30.50
2019-03-16T06:18:50.924Z,23.10
2019-03-16T06:19:50.915Z,27.89
2019-03-16T06:20:50.903Z,21.50
2019-03-16T06:21:50.893Z,21.20
2019-03-16T06:22:50.880Z,16.39
2019-03-16T06:23:51.023Z,24.89
2019-03-16T06:24:50.887Z,23.29
2019-03-16T06:25:50.850Z,22.50
2019-03-16T06:26:50.842Z,21.60
2019-03-16T06:27:50.827Z,19.29
2019-03-16T06:28:50.819Z,18.79
2019-03-16T06:29:50.909Z,29.60
2019-03-16T06:30:50.799Z,22.20
2019-03-16T06:31:50.791Z,17.89
2019-03-16T06:32:50.777Z,14.80
2019-03-16T06:33:50.761Z,15.50
2019-03-16T06:34:50.829Z,17.10
2019-03-16T06:35:50.944Z,20.89
2019-03-16T06:36:50.733Z,19.50
2019-03-16T06:37:50.722Z,24.89
2019-03-16T06:38:50.710Z,15.39
2019-03-16T06:39:50.707Z,18.10
2019-03-16T06:40:50.692Z,18.79
2019-03-16T06:41:50.728Z,24.20
2019-03-16T06:42:50.680Z,26.89
2019-03-16T06:43:50.657Z,21.39
2019-03-16T06:44:50.645Z,24.20
2019-03-16T06:45:50.638Z,29.00
2019-03-16T06:46:50.621Z,22.79
2019-03-16T06:47:50.712Z,19.39
2019-03-16T06:48:50.601Z,28.50
2019-03-16T06:49:50.592Z,24.39
2019-03-16T06:50:50.579Z,31.60
2019-03-16T06:51:50.567Z,27.10
2019-03-16T06:52:50.556Z,22.70
2019-03-16T06:53:50.695Z,24.00
2019-03-16T06:54:50.533Z,22.10
2019-03-16T06:55:50.528Z,26.70
2019-03-16T06:56:50.518Z,25.60
2019-03-16T06:57:50.507Z,23.20
2019-03-16T06:58:50.498Z,42.20
2019-03-16T06:59:50.588Z,27.79
2019-03-16T07:00:50.471Z,26.00
2019-03-16T07:01:50.459Z,29.60
2019-03-16T07:02:50.505Z,25.60
2019-03-16T07:03:50.442Z,28.50
2019-03-16T07:04:50.482Z,19.89
2019-03-16T07:05:50.422Z,21.70
2019-03-16T07:06:50.411Z,31.60
2019-03-16T07:07:50.400Z,24.20
2019-03-16T07:08:50.391Z,32.09
2019-03-16T07:09:50.380Z,24.70
2019-03-16T07:10:50.468Z,21.29
2019-03-16T07:11:50.356Z,27.60
2019-03-16T07:12:50.349Z,22.20
2019-03-16T07:13:50.336Z,21.50
2019-03-16T07:14:50.322Z,21.79
2019-03-16T07:15:50.516Z,24.60
2019-03-16T07:17:01.336Z,24.79
2019-03-16T07:18:15.105Z,26.70
2019-03-16T07:19:15.101Z,29.50
2019-03-16T07:20:15.085Z,26.29
2019-03-16T07:21:15.126Z,26.60
2019-03-16T07:22:15.067Z,24.79
2019-03-16T07:23:15.101Z,24.89
2019-03-16T07:24:15.047Z,19.89
2019-03-16T07:25:15.033Z,21.79
2019-03-16T07:26:15.454Z,25.10
2019-03-16T07:27:25.683Z,20.70
2019-03-16T07:28:39.817Z,20.20
2019-03-16T07:29:39.806Z,18.89
2019-03-16T07:30:39.791Z,21.10
2019-03-16T07:31:39.782Z,17.70
2019-03-16T07:32:39.969Z,23.89
2019-03-16T07:33:39.759Z,19.10
2019-03-16T07:34:39.749Z,20.50
2019-03-16T07:35:39.737Z,18.29
2019-03-16T07:36:39.730Z,18.79
2019-03-16T07:37:39.725Z,17.89
2019-03-16T07:38:39.757Z,16.79
2019-03-16T07:39:39.697Z,18.79
2019-03-16T07:40:39.687Z,14.10
2019-03-16T07:41:39.680Z,22.20
2019-03-16T07:42:39.664Z,17.10
2019-03-16T07:43:39.658Z,23.60
2019-03-16T07:44:39.695Z,22.50
2019-03-16T07:45:39.638Z,17.89
2019-03-16T07:46:39.625Z,24.60
2019-03-16T07:47:39.615Z,27.79
2019-03-16T07:48:39.605Z,18.89
2019-03-16T07:49:39.594Z,17.20
2019-03-16T07:50:39.786Z,16.00
2019-03-16T07:51:39.570Z,11.50
2019-03-16T07:52:39.561Z,16.00
2019-03-16T07:53:39.550Z,18.39
2019-03-16T07:54:39.540Z,14.00
2019-03-16T07:55:42.147Z,10.39
2019-03-16T07:56:39.571Z,23.29
2019-03-16T07:57:40.726Z,13.60
2019-03-16T07:58:39.500Z,13.00
2019-03-16T07:59:39.489Z,15.19
2019-03-16T08:00:39.483Z,12.80
2019-03-16T08:01:39.468Z,11.00
2019-03-16T08:02:39.506Z,6.50
2019-03-16T08:03:39.448Z,9.50
2019-03-16T08:04:39.437Z,9.89
2019-03-16T08:05:39.425Z,11.10
2019-03-16T08:06:39.416Z,13.69
2019-03-16T08:07:39.408Z,14.39
2019-03-16T08:08:39.548Z,12.80
2019-03-16T08:09:39.406Z,19.70
2019-03-16T08:10:39.379Z,11.69
2019-03-16T08:11:39.359Z,16.79
2019-03-16T08:12:39.357Z,18.39
2019-03-16T08:13:39.346Z,16.79
2019-03-16T08:14:39.378Z,22.50
2019-03-16T08:15:39.317Z,16.10
2019-03-16T08:16:39.309Z,19.00
2019-03-16T08:17:39.298Z,22.50
2019-03-16T08:18:39.284Z,17.79
2019-03-16T08:19:39.283Z,24.60
2019-03-16T08:20:39.317Z,21.70
2019-03-16T08:21:39.258Z,22.00
2019-03-16T08:22:39.245Z,19.89
2019-03-16T08:23:39.236Z,20.60
2019-03-16T08:24:39.230Z,17.89
2019-03-16T08:25:39.216Z,18.00
2019-03-16T08:26:39.357Z,14.39
2019-03-16T08:27:39.198Z,26.60
2019-03-16T08:28:39.193Z,18.00
2019-03-16T08:29:39.173Z,23.89
2019-03-16T08:30:39.164Z,14.39
2019-03-16T08:31:39.154Z,16.50
2019-03-16T08:32:39.192Z,17.89
2019-03-16T08:33:39.133Z,19.89
2019-03-16T08:34:39.124Z,26.60
2019-03-16T08:35:39.113Z,14.19
2019-03-16T08:36:39.102Z,16.10
2019-03-16T08:37:39.091Z,11.50
2019-03-16T08:38:39.130Z,17.50
2019-03-16T08:39:39.069Z,12.39
2019-03-16T08:40:39.058Z,19.00
2019-03-16T08:41:39.049Z,12.39
2019-03-16T08:42:39.042Z,13.50
2019-03-16T08:43:39.026Z,13.19
2019-03-16T08:44:39.218Z,12.60
2019-03-16T08:45:39.007Z,19.00
2019-03-16T08:46:39.003Z,12.80
2019-03-16T08:47:38.990Z,21.00
2019-03-16T08:48:38.975Z,13.50
2019-03-16T08:49:38.968Z,15.30
2019-03-16T08:50:39.004Z,16.79
2019-03-16T08:51:38.946Z,11.39
2019-03-16T08:52:38.935Z,9.50
2019-03-16T08:53:38.925Z,11.19
2019-03-16T08:54:38.910Z,11.50
2019-03-16T08:55:38.904Z,10.60
2019-03-16T08:56:38.941Z,7.50
2019-03-16T08:57:38.887Z,10.60
2019-03-16T08:58:38.874Z,13.10
2019-03-16T08:59:38.862Z,12.30
2019-03-16T09:00:38.853Z,17.10
2019-03-16T09:01:38.840Z,11.30
2019-03-16T09:02:39.080Z,13.89
2019-03-16T09:03:43.490Z,14.00
2019-03-16T09:04:38.812Z,20.79
2019-03-16T09:05:38.799Z,15.50
2019-03-16T09:06:38.793Z,16.39
2019-03-16T09:07:38.781Z,8.39
2019-03-16T09:08:38.825Z,13.30
2019-03-16T09:09:38.757Z,12.80
2019-03-16T09:10:38.745Z,17.29
2019-03-16T09:11:38.732Z,11.00
2019-03-16T09:12:38.730Z,15.30
2019-03-16T09:13:38.720Z,12.80
2019-03-16T09:14:38.752Z,12.69
2019-03-16T09:15:38.694Z,10.39
2019-03-16T09:16:38.685Z,18.70
2019-03-16T09:17:38.679Z,9.89
2019-03-16T09:18:38.668Z,10.19
2019-03-16T09:19:38.653Z,9.50
2019-03-16T09:20:39.092Z,12.00
2019-03-16T09:21:38.627Z,13.39
2019-03-16T09:22:38.620Z,8.39
2019-03-16T09:23:38.614Z,9.69
2019-03-16T09:24:38.597Z,9.60
2019-03-16T09:25:38.592Z,11.30
2019-03-16T09:26:38.681Z,14.69
2019-03-16T09:27:38.571Z,11.30
2019-03-16T09:28:38.560Z,8.80
2019-03-16T09:29:38.550Z,13.10
2019-03-16T09:30:38.541Z,13.50
2019-03-16T09:31:38.531Z,10.10
2019-03-16T09:32:38.568Z,14.00
2019-03-16T09:33:38.515Z,14.69
2019-03-16T09:34:38.499Z,11.60
2019-03-16T09:35:38.486Z,14.30
2019-03-16T09:36:38.477Z,16.20
2019-03-16T09:37:38.495Z,13.60
2019-03-16T09:38:38.659Z,11.00
2019-03-16T09:39:38.447Z,18.29
2019-03-16T09:40:38.434Z,17.39
2019-03-16T09:41:38.423Z,14.50
2019-03-16T09:42:38.424Z,12.69
2019-03-16T09:43:38.412Z,14.00
2019-03-16T09:44:38.442Z,10.69
2019-03-16T09:45:38.384Z,17.50
2019-03-16T09:46:38.375Z,11.30
2019-03-16T09:47:38.364Z,12.10
2019-03-16T09:48:38.355Z,15.89
2019-03-16T09:49:38.341Z,14.10
2019-03-16T09:50:38.434Z,10.19
2019-03-16T09:51:38.322Z,16.29
2019-03-16T09:52:38.313Z,11.30
2019-03-16T09:53:38.302Z,18.00
2019-03-16T09:54:38.289Z,12.89
2019-03-16T09:55:38.276Z,17.20
2019-03-16T09:56:38.419Z,10.80
2019-03-16T09:57:38.256Z,20.39
2019-03-16T09:58:38.248Z,11.10
2019-03-16T09:59:38.238Z,14.89
2019-03-16T10:00:38.228Z,15.00
2019-03-16T10:01:38.216Z,11.50
2019-03-16T10:02:38.252Z,12.69
2019-03-16T10:03:38.200Z,10.30
2019-03-16T10:04:38.188Z,10.80
2019-03-16T10:05:38.176Z,10.60
2019-03-16T10:06:38.163Z,10.30
2019-03-16T10:07:38.157Z,9.80
2019-03-16T10:08:38.350Z,10.39
2019-03-16T10:09:38.131Z,8.80
2019-03-16T10:10:38.122Z,14.60
2019-03-16T10:11:38.108Z,14.30
2019-03-16T10:12:38.099Z,10.60
2019-03-16T10:13:38.090Z,14.89
2019-03-16T10:14:38.276Z,16.10
2019-03-16T10:15:38.073Z,14.50
2019-03-16T10:16:38.057Z,17.20
2019-03-16T10:17:38.047Z,11.50
2019-03-16T10:18:38.040Z,13.50
2019-03-16T10:19:38.025Z,17.10
2019-03-16T10:20:38.064Z,21.20
2019-03-16T10:21:38.006Z,16.89
2019-03-16T10:22:37.993Z,10.50
2019-03-16T10:23:37.987Z,8.80
2019-03-16T10:24:37.979Z,11.00
2019-03-16T10:25:37.959Z,20.20
2019-03-16T10:26:38.002Z,11.80
2019-03-16T10:27:37.941Z,14.00
2019-03-16T10:28:43.590Z,13.30
2019-03-16T10:29:37.921Z,14.19
2019-03-16T10:30:37.911Z,11.39
2019-03-16T10:31:37.900Z,11.60
2019-03-16T10:32:38.043Z,13.69
2019-03-16T10:33:37.875Z,13.80
2019-03-16T10:34:37.868Z,10.60
2019-03-16T10:35:37.857Z,11.80
2019-03-16T10:36:37.846Z,18.60
2019-03-16T10:37:37.837Z,16.70
2019-03-16T10:38:38.552Z,11.60
2019-03-16T10:39:37.815Z,16.39
2019-03-16T10:40:37.804Z,16.79
2019-03-16T10:41:37.792Z,14.80
2019-03-16T10:42:37.780Z,12.19
2019-03-16T10:43:37.769Z,12.69
2019-03-16T10:44:37.860Z,13.50
2019-03-16T10:45:37.749Z,18.70
2019-03-16T10:46:37.737Z,9.80
2019-03-16T10:47:37.726Z,14.60
2019-03-16T10:48:37.711Z,12.60
2019-03-16T10:49:37.702Z,14.69
2019-03-16T10:50:38.096Z,12.69
2019-03-16T10:51:37.675Z,14.50
2019-03-16T10:52:37.678Z,11.00
2019-03-16T10:53:37.658Z,18.50
2019-03-16T10:54:37.644Z,19.00
2019-03-16T10:55:37.637Z,21.50
2019-03-16T10:56:37.731Z,14.89
2019-03-16T10:57:37.616Z,13.89
2019-03-16T10:58:37.605Z,15.89
2019-03-16T10:59:37.595Z,19.10
2019-03-16T11:00:37.582Z,16.89
2019-03-16T11:01:37.570Z,15.10
2019-03-16T11:02:37.611Z,24.20
2019-03-16T11:03:39.548Z,18.89
2019-03-16T11:04:37.541Z,17.39
2019-03-16T11:05:37.530Z,23.10
2019-03-16T11:06:37.517Z,14.89
2019-03-16T11:07:37.505Z,14.19
2019-03-16T11:08:37.647Z,19.20
2019-03-16T11:09:37.515Z,14.30
2019-03-16T11:10:37.474Z,23.10
2019-03-16T11:11:37.493Z,14.39
2019-03-16T11:12:37.452Z,22.60
2019-03-16T11:13:37.448Z,19.00
2019-03-16T11:14:37.535Z,17.70
2019-03-16T11:15:37.418Z,14.19
2019-03-16T11:16:37.409Z,16.00
2019-03-16T11:17:37.399Z,14.69
2019-03-16T11:18:37.383Z,18.00
2019-03-16T11:19:37.374Z,13.50
2019-03-16T11:20:37.471Z,13.60
2019-03-16T11:21:37.352Z,12.60
2019-03-16T11:22:37.341Z,9.39
2019-03-16T11:23:37.332Z,9.39
2019-03-16T11:24:37.319Z,13.19
2019-03-16T11:25:37.315Z,16.89
2019-03-16T11:26:37.453Z,15.10
2019-03-16T11:27:37.287Z,14.00
2019-03-16T11:28:37.277Z,15.50
2019-03-16T11:29:37.262Z,23.79
2019-03-16T11:30:37.252Z,13.60
2019-03-16T11:31:37.245Z,15.39
2019-03-16T11:32:37.287Z,10.60
2019-03-16T11:33:37.218Z,17.70
2019-03-16T11:34:37.209Z,13.80
2019-03-16T11:35:37.202Z,14.00
2019-03-16T11:36:37.188Z,19.10
2019-03-16T11:37:37.179Z,16.60
2019-03-16T11:38:37.274Z,14.19
2019-03-16T11:39:37.161Z,9.50
2019-03-16T11:40:37.148Z,13.50
2019-03-16T11:41:37.137Z,19.60
2019-03-16T11:42:37.123Z,24.29
2019-03-16T11:43:37.115Z,24.70
2019-03-16T11:44:37.361Z,24.89
2019-03-16T11:45:37.092Z,22.79
2019-03-16T11:46:37.078Z,15.19
2019-03-16T11:47:37.071Z,16.60
2019-03-16T11:48:37.063Z,26.29
2019-03-16T11:49:37.049Z,19.79
2019-03-16T11:50:37.088Z,16.29
2019-03-16T11:51:37.033Z,28.89
2019-03-16T11:52:37.018Z,20.60
2019-03-16T11:53:37.005Z,24.79
2019-03-16T11:54:36.996Z,26.20
2019-03-16T11:55:36.985Z,21.00
2019-03-16T11:56:37.071Z,22.50
2019-03-16T11:57:36.959Z,24.29
2019-03-16T11:58:36.950Z,15.00
2019-03-16T11:59:36.946Z,29.89
2019-03-16T12:00:36.928Z,23.29
2019-03-16T12:01:36.917Z,18.70
2019-03-16T12:02:37.062Z,24.20
2019-03-16T12:03:36.898Z,16.70
2019-03-16T12:04:36.886Z,23.00
2019-03-16T12:05:36.877Z,27.39
2019-03-16T12:06:36.867Z,23.00
2019-03-16T12:07:36.854Z,24.60
2019-03-16T12:08:39.581Z,22.29
2019-03-16T12:09:36.838Z,25.60
2019-03-16T12:10:36.828Z,22.20
2019-03-16T12:11:36.810Z,27.50
2019-03-16T12:12:36.802Z,32.00
2019-03-16T12:13:36.790Z,39.20
2019-03-16T12:14:36.878Z,32.70
2019-03-16T12:15:36.774Z,25.20
2019-03-16T12:16:36.761Z,29.89
2019-03-16T12:17:36.755Z,22.50
2019-03-16T12:18:36.740Z,25.60
2019-03-16T12:19:36.726Z,23.50
2019-03-16T12:20:36.878Z,25.00
2019-03-16T12:21:36.723Z,19.29
2019-03-16T12:22:36.698Z,19.20
2019-03-16T12:23:36.693Z,18.70
2019-03-16T12:24:36.672Z,23.60
2019-03-16T12:25:36.668Z,28.60
2019-03-16T12:26:36.752Z,21.70
2019-03-16T12:27:36.645Z,25.00
2019-03-16T12:28:36.634Z,25.60
2019-03-16T12:29:36.625Z,26.50
2019-03-16T12:30:36.612Z,33.59
2019-03-16T12:31:36.602Z,34.59
2019-03-16T12:32:36.643Z,30.00
2019-03-16T12:33:36.594Z,34.59
2019-03-16T12:34:36.569Z,27.79
2019-03-16T12:35:36.565Z,27.79
2019-03-16T12:36:36.552Z,24.79
2019-03-16T12:37:36.542Z,29.60
2019-03-16T12:38:36.778Z,29.10
2019-03-16T12:39:36.514Z,27.50
2019-03-16T12:40:36.509Z,25.70
2019-03-16T12:41:36.515Z,31.70
2019-03-16T12:42:36.494Z,28.10
2019-03-16T12:43:36.476Z,35.79
2019-03-16T12:44:36.561Z,33.40
2019-03-16T12:45:36.460Z,37.29
2019-03-16T12:46:36.445Z,32.09
2019-03-16T12:47:36.430Z,27.20
2019-03-16T12:48:36.423Z,34.59
2019-03-16T12:49:36.414Z,26.20
2019-03-16T12:50:36.449Z,26.29
2019-03-16T12:51:36.395Z,29.50
2019-03-16T12:52:36.380Z,25.79
2019-03-16T12:53:39.349Z,41.20
2019-03-16T12:54:36.359Z,33.09